Time;durP1;ratioP1;P1;durP2;ratioP2;P2;SDS_P1;SDS_P2;PMS_P1;PMS_P2;Temp;Humidity;BMP_temperature;BMP_pressure;BME280_temperature;BME280_humidity;BME280_pressure;Samples;Min_cycle;Max_cycle;Signal;HPM_P1;HPM_P2
2022/02/06 00:00:04;;;;;;;8.70;3.88;;;;;;;5.64;100.00;99911.38;5062875;28;20624;-79
2022/02/06 00:02:35;;;;;;;6.68;2.85;;;;;;;5.55;100.00;99922.34;5069434;28;20278;-80
2022/02/06 00:05:01;;;;;;;5.97;4.20;;;;;;;5.63;100.00;99931.00;5072178;28;20188;-80
2022/02/06 00:07:29;;;;;;;8.00;3.53;;;;;;;5.57;100.00;99917.84;5069298;28;20208;-79
2022/02/06 00:09:56;;;;;;;7.85;4.35;;;;;;;5.62;100.00;99915.03;5071803;28;20242;-79
2022/02/06 00:12:22;;;;;;;9.20;3.30;;;;;;;5.64;100.00;99913.19;5070402;28;20239;-78
2022/02/06 00:14:49;;;;;;;5.70;2.80;;;;;;;5.60;100.00;99903.50;5071419;28;20657;-78
2022/02/06 00:17:17;;;;;;;10.32;3.35;;;;;;;5.62;100.00;99891.84;5070608;28;20193;-80
2022/02/06 00:19:44;;;;;;;9.90;3.25;;;;;;;5.64;100.00;99891.81;5070849;28;20303;-79
2022/02/06 00:22:14;;;;;;;4.97;3.30;;;;;;;5.67;100.00;99891.69;5070861;28;20288;-78
2022/02/06 00:24:46;;;;;;;5.20;2.90;;;;;;;5.72;100.00;99894.22;5071109;28;20203;-79
2022/02/06 00:27:24;;;;;;;6.25;2.90;;;;;;;5.79;100.00;99893.97;5070998;28;20283;-79
2022/02/06 00:29:55;;;;;;;4.93;2.53;;;;;;;5.84;100.00;99877.78;5071179;28;20241;-79
2022/02/06 00:32:33;;;;;;;5.72;2.67;;;;;;;5.90;100.00;99890.03;5070273;28;20202;-79
2022/02/06 00:41:11;;;;;;;4.82;2.22;;;;;;;5.61;100.00;99883.91;5017254;28;20203;-80
2022/02/06 00:43:38;;;;;;;7.85;2.60;;;;;;;5.81;100.00;99880.53;5017820;28;20194;-80
2022/02/06 00:46:07;;;;;;;5.70;3.42;;;;;;;5.74;100.00;99879.88;5045123;28;20288;-79
2022/02/06 00:48:38;;;;;;;8.65;2.97;;;;;;;5.90;100.00;99869.56;5062817;28;21020;-80
2022/02/06 00:51:10;;;;;;;6.45;2.35;;;;;;;5.92;100.00;99856.13;5061106;28;20193;-79
2022/02/06 00:53:37;;;;;;;8.30;3.28;;;;;;;5.88;100.00;99859.81;5059290;28;20194;-79
2022/02/06 00:56:04;;;;;;;6.60;2.60;;;;;;;6.04;100.00;99861.94;5067234;28;20201;-81
2022/02/06 00:58:30;;;;;;;3.85;2.47;;;;;;;6.04;100.00;99850.41;5069133;28;20537;-79
2022/02/06 01:00:57;;;;;;;9.80;3.25;;;;;;;6.02;100.00;99836.22;5069256;28;20219;-80
2022/02/06 01:03:24;;;;;;;5.55;2.63;;;;;;;5.95;100.00;99846.25;5070361;28;20181;-80
2022/02/06 01:05:52;;;;;;;4.72;2.88;;;;;;;5.95;100.00;99840.91;5069737;28;20593;-81
2022/02/06 01:08:18;;;;;;;4.82;2.95;;;;;;;5.94;100.00;99849.81;5063644;28;20185;-80
2022/02/06 01:10:45;;;;;;;7.38;2.72;;;;;;;5.89;100.00;99835.72;5058893;28;20217;-80
2022/02/06 01:13:14;;;;;;;4.38;2.67;;;;;;;5.84;100.00;99829.69;5066357;28;20618;-78
2022/02/06 01:15:48;;;;;;;5.97;3.60;;;;;;;5.88;100.00;99833.09;5075468;28;20200;-80
2022/02/06 01:18:21;;;;;;;7.38;2.75;;;;;;;5.87;100.00;99821.53;5066765;28;20234;-79
2022/02/06 01:20:56;;;;;;;9.40;3.92;;;;;;;5.85;100.00;99816.22;5063465;28;20201;-80
2022/02/06 01:23:28;;;;;;;11.90;3.55;;;;;;;5.84;100.00;99821.66;5063482;28;20266;-80
2022/02/06 01:25:59;;;;;;;5.60;2.78;;;;;;;5.83;100.00;99795.84;5064512;28;20555;-78
2022/02/06 01:28:33;;;;;;;6.78;2.83;;;;;;;5.83;100.00;99807.44;5067215;28;20216;-80
2022/02/06 01:31:06;;;;;;;5.55;2.65;;;;;;;5.96;100.00;99799.00;5066477;28;20205;-78
2022/02/06 01:33:38;;;;;;;7.93;2.80;;;;;;;5.89;100.00;99797.44;5066640;28;20199;-79
2022/02/06 01:36:11;;;;;;;9.73;2.50;;;;;;;5.87;100.00;99794.81;5074726;28;20635;-80
2022/02/06 01:39:00;;;;;;;6.97;2.72;;;;;;;5.93;100.00;99789.25;5075146;28;20806;-80
2022/02/06 01:41:31;;;;;;;8.88;2.97;;;;;;;5.72;100.00;99785.56;5064268;28;20195;-80
2022/02/06 01:44:03;;;;;;;7.18;2.90;;;;;;;5.85;100.00;99786.84;5064069;28;20189;-80
2022/02/06 01:46:42;;;;;;;5.55;2.80;;;;;;;5.87;100.00;99784.13;5069491;28;20188;-79
2022/02/06 02:03:00;;;;;;;6.88;3.38;;;;;;;5.80;100.00;99783.47;5065816;28;20279;-79
2022/02/06 02:08:39;;;;;;;8.55;2.60;;;;;;;5.74;100.00;99777.47;5062632;28;20542;-78
2022/02/06 02:14:11;;;;;;;11.07;3.70;;;;;;;5.95;100.00;99757.19;5064687;28;20191;-78
2022/02/06 02:28:01;;;;;;;8.18;3.80;;;;;;;5.99;100.00;99703.53;5066792;28;20197;-79
2022/02/06 02:30:54;;;;;;;6.28;2.38;;;;;;;6.02;100.00;99697.22;5073461;28;20258;-79
2022/02/06 02:33:45;;;;;;;7.22;3.13;;;;;;;6.03;100.00;99702.47;5073592;28;20189;-79
2022/02/06 02:47:19;;;;;;;4.53;2.72;;;;;;;5.94;100.00;99669.84;5040474;28;20276;-79
2022/02/06 02:49:52;;;;;;;4.80;2.85;;;;;;;6.07;100.00;99676.50;5072465;28;20177;-79
2022/02/06 02:52:33;;;;;;;5.65;2.80;;;;;;;6.07;100.00;99662.28;5074114;28;20622;-78
2022/02/06 02:55:15;;;;;;;11.27;3.33;;;;;;;5.97;100.00;99667.09;5062286;28;20196;-79
2022/02/06 02:57:47;;;;;;;8.57;3.33;;;;;;;6.11;100.00;99659.44;5073523;28;20254;-80
2022/02/06 03:00:25;;;;;;;5.13;3.33;;;;;;;6.25;100.00;99656.22;5073188;28;20201;-80
2022/02/06 03:03:01;;;;;;;6.07;2.60;;;;;;;5.96;100.00;99654.66;5064814;28;20184;-79
2022/02/06 03:05:28;;;;;;;13.63;3.35;;;;;;;5.96;100.00;99628.81;5071717;28;20196;-78
2022/02/06 03:07:55;;;;;;;3.85;2.70;;;;;;;6.02;100.00;99617.00;5073863;28;20595;-78
2022/02/06 03:10:23;;;;;;;7.07;3.25;;;;;;;5.92;100.00;99620.94;5072554;28;20181;-78
2022/02/06 03:12:52;;;;;;;9.75;4.22;;;;;;;5.85;100.00;99626.50;5073797;28;20701;-79
2022/02/06 03:15:32;;;;;;;11.80;2.63;;;;;;;6.00;100.00;99618.88;5073256;28;20185;-79
2022/02/06 03:18:02;;;;;;;7.40;3.38;;;;;;;5.81;100.00;99613.31;5073368;28;20189;-79
2022/02/06 03:20:29;;;;;;;6.47;3.20;;;;;;;5.73;100.00;99616.31;5070745;28;20330;-79
2022/02/06 03:23:00;;;;;;;6.80;3.20;;;;;;;5.80;100.00;99619.59;5073130;28;20697;-78
2022/02/06 03:25:28;;;;;;;6.00;2.88;;;;;;;5.84;100.00;99613.22;5073031;28;20193;-78
2022/02/06 03:27:56;;;;;;;7.50;3.08;;;;;;;5.89;100.00;99618.38;5073256;28;20192;-78
2022/02/06 03:30:25;;;;;;;15.35;2.80;;;;;;;5.96;100.00;99601.22;5072461;28;20199;-79
2022/02/06 03:32:53;;;;;;;7.78;2.65;;;;;;;5.97;100.00;99609.19;5073261;28;20196;-79
2022/02/06 03:35:20;;;;;;;7.38;3.72;;;;;;;5.98;100.00;99597.53;5072689;28;20201;-78
2022/02/06 03:37:47;;;;;;;4.82;2.95;;;;;;;6.06;100.00;99591.91;5072262;28;20537;-78
2022/02/06 03:40:20;;;;;;;5.68;3.10;;;;;;;6.07;100.00;99598.13;5072283;28;20228;-79
2022/02/06 03:42:59;;;;;;;5.43;2.97;;;;;;;6.05;100.00;99596.38;5073000;28;20238;-79
2022/02/06 03:45:34;;;;;;;13.02;3.60;;;;;;;6.13;100.00;99593.41;5072801;28;20212;-78
2022/02/06 03:48:11;;;;;;;7.28;3.40;;;;;;;6.12;100.00;99605.00;5072725;28;20192;-79
2022/02/06 03:50:38;;;;;;;6.80;2.80;;;;;;;6.04;100.00;99609.81;5065342;28;20185;-79
2022/02/06 03:53:05;;;;;;;6.30;2.78;;;;;;;6.05;100.00;99601.72;5071123;28;20609;-79
2022/02/06 03:55:32;;;;;;;4.38;2.70;;;;;;;6.05;100.00;99601.72;5072506;28;20189;-79
2022/02/06 03:58:00;;;;;;;8.68;3.47;;;;;;;5.92;100.00;99600.41;5071798;28;20250;-79
2022/02/06 04:00:27;;;;;;;9.10;2.60;;;;;;;5.95;100.00;99603.03;5072512;28;20319;-79
2022/02/06 04:02:54;;;;;;;4.72;2.85;;;;;;;6.09;100.00;99596.25;5071435;28;20292;-79
2022/02/06 04:05:20;;;;;;;8.98;3.03;;;;;;;5.92;100.00;99589.72;5071651;28;20276;-78
2022/02/06 04:07:48;;;;;;;5.85;2.95;;;;;;;6.03;100.00;99587.53;5072086;28;20227;-78
2022/02/06 04:10:16;;;;;;;4.07;2.92;;;;;;;5.99;100.00;99593.97;5072056;28;20180;-80
2022/02/06 04:12:45;;;;;;;6.85;2.90;;;;;;;6.08;100.00;99583.81;5072239;28;20630;-80
2022/02/06 04:15:20;;;;;;;8.35;2.85;;;;;;;6.01;100.00;99581.38;5071485;28;20255;-79
2022/02/06 04:17:51;;;;;;;8.52;2.50;;;;;;;5.93;100.00;99587.94;5072178;28;20200;-79
2022/02/06 04:20:17;;;;;;;5.25;3.03;;;;;;;5.94;100.00;99569.19;5071842;28;20287;-79
2022/02/06 04:22:44;;;;;;;6.70;2.58;;;;;;;6.01;100.00;99578.69;5069004;28;20195;-80
2022/02/06 04:25:11;;;;;;;16.00;3.10;;;;;;;5.96;100.00;99580.69;5072383;28;20199;-80
2022/02/06 04:27:37;;;;;;;5.88;3.22;;;;;;;5.98;100.00;99565.47;5072055;28;20199;-80
2022/02/06 04:30:04;;;;;;;6.88;2.88;;;;;;;6.10;100.00;99569.44;5071624;28;20693;-80
2022/02/06 04:32:34;;;;;;;7.57;2.80;;;;;;;6.21;100.00;99567.22;5071890;28;20198;-79
2022/02/06 04:35:00;;;;;;;7.15;3.30;;;;;;;6.10;100.00;99565.91;5071953;28;20200;-80
2022/02/06 04:37:33;;;;;;;9.48;3.40;;;;;;;6.10;100.00;99572.13;5069591;28;20276;-79
2022/02/06 04:40:12;;;;;;;5.60;2.60;;;;;;;6.08;100.00;99562.44;5071648;28;20336;-79
2022/02/06 04:45:49;;;;;;;7.75;3.50;;;;;;;6.14;100.00;99575.56;5068862;28;20188;-79
2022/02/06 04:54:07;;;;;;;5.00;2.80;;;;;;;6.15;100.00;99554.13;5073100;28;21579;-80
2022/02/06 05:13:40;;;;;;;7.20;3.20;;;;;;;6.18;100.00;99510.34;5075028;28;20328;-79
2022/02/06 05:16:22;;;;;;;7.55;2.47;;;;;;;6.05;100.00;99518.84;5072251;28;20254;-79
2022/02/06 05:24:49;;;;;;;8.13;3.40;;;;;;;6.04;100.00;99498.41;5034676;28;20200;-79
2022/02/06 05:27:27;;;;;;;7.68;3.30;;;;;;;6.07;100.00;99485.84;5056056;28;20185;-80
2022/02/06 05:30:01;;;;;;;7.70;3.10;;;;;;;6.13;100.00;99485.56;5061820;28;20284;-79
2022/02/06 05:32:36;;;;;;;5.47;2.90;;;;;;;5.95;100.00;99496.13;5063995;28;20279;-80
2022/02/06 05:35:03;;;;;;;6.53;2.42;;;;;;;6.05;100.00;99485.91;5063795;28;20203;-80
2022/02/06 05:37:31;;;;;;;5.60;2.30;;;;;;;6.13;100.00;99488.25;5070422;28;20661;-79
2022/02/06 05:39:58;;;;;;;9.90;3.25;;;;;;;6.19;100.00;99485.31;5066351;28;20230;-79
2022/02/06 05:42:24;;;;;;;6.43;2.67;;;;;;;6.20;100.00;99466.56;5067004;28;20257;-80
2022/02/06 05:44:54;;;;;;;9.20;2.90;;;;;;;6.20;100.00;99453.19;5069503;28;20197;-79
2022/02/06 05:47:22;;;;;;;5.80;2.75;;;;;;;6.23;100.00;99449.50;5062333;28;20238;-79
2022/02/06 05:49:48;;;;;;;7.03;3.20;;;;;;;6.16;100.00;99464.94;5060143;28;20272;-80
2022/02/06 05:52:15;;;;;;;6.03;3.15;;;;;;;6.03;100.00;99448.53;5068289;28;20180;-80
2022/02/06 05:54:43;;;;;;;10.98;3.38;;;;;;;6.10;100.00;99442.94;5074075;28;20188;-79
2022/02/06 05:57:10;;;;;;;6.57;2.83;;;;;;;6.07;100.00;99438.59;5074541;28;20548;-79
2022/02/06 05:59:36;;;;;;;7.85;2.70;;;;;;;6.03;100.00;99424.47;5072810;28;20279;-80
2022/02/06 06:02:03;;;;;;;4.35;2.85;;;;;;;6.11;100.00;99415.28;5074056;28;20751;-80
2022/02/06 06:04:30;;;;;;;6.32;3.45;;;;;;;6.03;100.00;99412.94;5074344;28;20573;-80
2022/02/06 06:06:56;;;;;;;6.90;3.10;;;;;;;6.15;100.00;99414.22;5074330;28;20203;-79
2022/02/06 06:09:23;;;;;;;9.00;2.78;;;;;;;6.07;100.00;99422.56;5072627;28;20187;-79
2022/02/06 06:11:51;;;;;;;8.27;3.10;;;;;;;6.03;100.00;99416.47;5066518;28;20223;-79
2022/02/06 06:14:18;;;;;;;5.20;2.75;;;;;;;5.92;100.00;99399.97;5066489;28;20199;-79
2022/02/06 06:16:44;;;;;;;7.45;2.30;;;;;;;6.02;100.00;99397.84;5064911;28;20666;-80
2022/02/06 06:19:12;;;;;;;5.32;2.15;;;;;;;5.99;100.00;99387.25;5066154;28;20206;-79
2022/02/06 06:21:43;;;;;;;8.82;3.00;;;;;;;5.98;100.00;99398.91;5064340;28;20521;-79
2022/02/06 06:24:15;;;;;;;7.22;2.75;;;;;;;5.99;100.00;99395.28;5073934;28;20192;-79
2022/02/06 06:26:41;;;;;;;6.50;3.33;;;;;;;6.03;100.00;99403.09;5065802;28;20191;-80
2022/02/06 06:29:09;;;;;;;8.40;2.92;;;;;;;6.02;100.00;99395.16;5059818;28;20189;-80
2022/02/06 06:31:36;;;;;;;7.50;2.90;;;;;;;6.15;100.00;99390.16;5063755;28;20252;-79
2022/02/06 06:34:02;;;;;;;5.53;2.50;;;;;;;6.11;100.00;99409.94;5060814;28;20634;-80
2022/02/06 06:36:31;;;;;;;4.70;2.50;;;;;;;6.10;100.00;99390.34;5064242;28;20196;-80
2022/02/06 06:38:58;;;;;;;6.60;2.60;;;;;;;6.16;100.00;99395.44;5068395;28;20239;-80
2022/02/06 06:41:24;;;;;;;7.78;3.05;;;;;;;6.09;100.00;99388.63;5072711;28;20254;-78
2022/02/06 06:43:51;;;;;;;6.75;3.28;;;;;;;6.07;100.00;99389.63;5073572;28;20204;-78
2022/02/06 06:46:19;;;;;;;10.63;3.03;;;;;;;6.15;100.00;99398.16;5072431;28;20195;-80
2022/02/06 06:48:46;;;;;;;6.22;2.63;;;;;;;6.15;100.00;99388.38;5073670;28;20203;-79
2022/02/06 06:51:25;;;;;;;5.50;2.25;;;;;;;6.02;100.00;99377.31;5071472;28;20279;-79
2022/02/06 06:53:52;;;;;;;5.82;2.55;;;;;;;6.10;100.00;99358.28;5072471;28;20189;-79
2022/02/06 06:56:27;;;;;;;6.35;2.47;;;;;;;6.19;100.00;99357.00;5072997;28;20189;-79
2022/02/06 06:58:53;;;;;;;5.05;2.60;;;;;;;6.15;100.00;99371.44;5073195;28;20548;-79
2022/02/06 07:01:43;;;;;;;6.13;2.70;;;;;;;6.23;100.00;99369.31;5072591;28;20700;-79
2022/02/06 07:04:10;;;;;;;3.70;2.40;;;;;;;6.15;100.00;99366.09;5072552;28;20214;-77
2022/02/06 07:06:36;;;;;;;5.78;2.53;;;;;;;6.18;100.00;99365.97;5072270;28;20199;-79
2022/02/06 07:09:03;;;;;;;7.32;4.75;;;;;;;6.15;100.00;99348.25;5073461;28;20216;-80
2022/02/06 07:11:30;;;;;;;4.38;2.35;;;;;;;6.28;100.00;99356.59;5069004;28;20278;-78
2022/02/06 07:13:57;;;;;;;6.40;2.53;;;;;;;6.15;100.00;99353.63;5066934;28;20279;-78
2022/02/06 07:16:25;;;;;;;9.98;2.95;;;;;;;6.11;100.00;99343.97;5072719;28;20235;-79
2022/02/06 07:18:51;;;;;;;5.45;2.58;;;;;;;6.13;100.00;99365.28;5072902;28;20293;-80
2022/02/06 07:21:18;;;;;;;5.22;2.53;;;;;;;6.10;100.00;99360.94;5072571;28;20208;-79
2022/02/06 07:23:44;;;;;;;6.13;2.63;;;;;;;6.10;100.00;99352.91;5072278;28;20195;-79
2022/02/06 07:26:17;;;;;;;7.30;2.40;;;;;;;6.07;100.00;99354.88;5072774;28;20296;-79
2022/02/06 07:28:48;;;;;;;5.57;2.30;;;;;;;6.12;100.00;99360.88;5056596;28;20247;-79
2022/02/06 07:31:15;;;;;;;3.88;2.72;;;;;;;6.05;100.00;99353.13;5070695;28;20196;-80
2022/02/06 07:33:43;;;;;;;5.05;2.67;;;;;;;6.10;100.00;99352.06;5073020;28;20202;-79
2022/02/06 07:36:10;;;;;;;6.30;2.60;;;;;;;6.17;100.00;99348.19;5073128;28;20722;-79
2022/02/06 07:38:36;;;;;;;5.03;2.47;;;;;;;6.20;100.00;99337.38;5069270;28;20264;-79
2022/02/06 07:41:03;;;;;;;10.90;3.08;;;;;;;6.28;100.00;99329.84;5072009;28;20576;-79
2022/02/06 07:43:30;;;;;;;7.45;3.00;;;;;;;6.38;100.00;99341.03;5072663;28;20216;-80
2022/02/06 07:45:56;;;;;;;7.28;2.55;;;;;;;6.26;100.00;99335.28;5072181;28;20634;-79
2022/02/06 07:48:23;;;;;;;7.85;2.65;;;;;;;6.05;100.00;99355.78;5055842;28;20201;-78
2022/02/06 07:50:51;;;;;;;3.85;2.20;;;;;;;6.15;100.00;99339.34;5062886;28;20185;-78
2022/02/06 07:53:18;;;;;;;10.30;3.20;;;;;;;6.20;100.00;99332.03;5067602;28;20193;-80
2022/02/06 07:55:45;;;;;;;2.88;2.53;;;;;;;6.21;100.00;99328.41;5071912;28;20192;-80
2022/02/06 07:58:11;;;;;;;3.38;2.38;;;;;;;6.07;100.00;99326.34;5071368;28;20207;-80
2022/02/06 08:00:38;;;;;;;8.10;3.00;;;;;;;6.23;100.00;99331.88;5071833;28;20185;-78
2022/02/06 08:03:04;;;;;;;5.15;2.67;;;;;;;6.14;100.00;99327.81;5072092;28;20595;-81
2022/02/06 08:05:31;;;;;;;5.70;3.47;;;;;;;6.23;100.00;99334.53;5072129;28;20188;-80
2022/02/06 08:08:00;;;;;;;3.08;2.50;;;;;;;6.33;100.00;99333.22;5071318;28;20676;-78
2022/02/06 08:10:28;;;;;;;6.97;3.22;;;;;;;6.18;100.00;99305.34;5071593;28;20195;-79
2022/02/06 08:12:56;;;;;;;4.22;2.88;;;;;;;6.32;100.00;99312.75;5070306;28;20231;-79
2022/02/06 08:15:23;;;;;;;4.53;3.05;;;;;;;6.28;100.00;99329.00;5071466;28;20302;-79
2022/02/06 08:17:51;;;;;;;7.72;2.80;;;;;;;6.14;100.00;99335.81;5060774;28;20272;-81
2022/02/06 08:20:19;;;;;;;8.73;2.75;;;;;;;5.94;100.00;99327.78;5063047;28;20188;-79
2022/02/06 08:22:46;;;;;;;5.95;3.05;;;;;;;6.01;100.00;99322.13;5062258;28;20228;-80
2022/02/06 08:25:14;;;;;;;5.05;2.80;;;;;;;5.97;100.00;99322.31;5064087;28;20227;-79
2022/02/06 08:27:41;;;;;;;7.07;3.35;;;;;;;5.79;100.00;99313.28;5069612;28;20200;-79
2022/02/06 08:30:10;;;;;;;5.15;3.15;;;;;;;5.90;100.00;99297.66;5067703;28;20188;-81
2022/02/06 08:32:37;;;;;;;6.10;3.28;;;;;;;5.99;100.00;99299.97;5071490;28;20189;-81
2022/02/06 08:35:04;;;;;;;7.97;3.10;;;;;;;5.74;100.00;99291.22;5070580;28;20197;-81
2022/02/06 08:37:31;;;;;;;5.43;3.63;;;;;;;5.88;100.00;99290.63;5064697;28;20204;-81
2022/02/06 08:39:58;;;;;;;11.27;4.55;;;;;;;6.00;100.00;99292.81;5062860;28;20228;-80
2022/02/06 08:42:26;;;;;;;7.20;3.17;;;;;;;5.97;100.00;99277.78;5057446;28;20300;-81
2022/02/06 08:44:52;;;;;;;8.85;3.70;;;;;;;5.97;100.00;99282.22;5061232;28;20200;-80
2022/02/06 08:47:19;;;;;;;8.93;3.53;;;;;;;6.10;100.00;99266.53;5061297;28;20217;-80
2022/02/06 08:49:47;;;;;;;11.05;3.70;;;;;;;6.12;100.00;99259.31;5053416;28;20593;-81
2022/02/06 08:52:14;;;;;;;11.15;4.00;;;;;;;6.13;100.00;99255.69;5065379;28;20658;-81
2022/02/06 08:54:41;;;;;;;4.82;3.40;;;;;;;6.15;100.00;99249.34;5063551;28;20647;-79
2022/02/06 08:57:18;;;;;;;7.03;4.35;;;;;;;6.18;100.00;99234.97;5066400;28;20279;-78
2022/02/06 08:59:46;;;;;;;6.07;4.00;;;;;;;6.21;100.00;99237.50;5064159;28;20193;-78
2022/02/06 09:02:13;;;;;;;8.90;4.95;;;;;;;6.10;100.00;99234.44;5063973;28;20208;-79
2022/02/06 09:04:39;;;;;;;4.78;4.05;;;;;;;6.15;100.00;99235.09;5060685;28;20227;-81
2022/02/06 09:07:07;;;;;;;7.70;3.47;;;;;;;6.01;100.00;99225.03;5057389;28;20185;-82
2022/02/06 09:09:34;;;;;;;4.70;4.15;;;;;;;6.04;100.00;99215.09;5074054;28;20515;-76
2022/02/06 09:12:02;;;;;;;6.10;3.88;;;;;;;6.19;100.00;99204.63;5064145;28;20193;-78
2022/02/06 09:14:32;;;;;;;8.13;3.90;;;;;;;6.03;100.00;99213.34;5061751;28;20200;-77
2022/02/06 09:17:00;;;;;;;10.25;3.92;;;;;;;6.06;100.00;99207.00;5054280;28;20559;-77
2022/02/06 09:19:27;;;;;;;5.50;3.10;;;;;;;6.08;100.00;99201.56;5070534;28;20243;-78
2022/02/06 09:21:54;;;;;;;4.15;3.33;;;;;;;5.99;100.00;99194.84;5066371;28;20232;-78
2022/02/06 09:24:21;;;;;;;8.23;3.60;;;;;;;6.05;100.00;99182.06;5061861;28;20697;-77
2022/02/06 09:26:49;;;;;;;8.07;4.60;;;;;;;6.05;100.00;99175.84;5065931;28;20191;-77
2022/02/06 09:29:16;;;;;;;6.68;3.67;;;;;;;6.11;100.00;99183.59;5058295;28;20194;-78
2022/02/06 09:31:43;;;;;;;4.90;3.63;;;;;;;6.19;100.00;99193.94;5061583;28;20872;-77
2022/02/06 09:36:37;;;;;;;9.85;4.22;;;;;;;6.13;100.00;99176.38;5067098;28;20265;-78
2022/02/06 09:39:09;;;;;;;6.45;4.20;;;;;;;6.05;100.00;99182.06;5062394;28;20221;-78
2022/02/06 09:41:37;;;;;;;10.05;5.10;;;;;;;6.18;100.00;99173.50;5071485;28;20676;-78
2022/02/06 09:44:06;;;;;;;7.75;4.10;;;;;;;6.24;100.00;99167.84;5064411;28;21012;-75
2022/02/06 09:46:35;;;;;;;4.95;3.97;;;;;;;6.37;100.00;99160.09;5065523;28;20620;-76
2022/02/06 09:49:02;;;;;;;6.60;4.20;;;;;;;6.41;100.00;99154.53;5064650;28;20643;-78
2022/02/06 09:51:30;;;;;;;8.85;4.18;;;;;;;6.27;100.00;99165.03;5065744;28;20560;-78
2022/02/06 09:53:59;;;;;;;7.53;4.03;;;;;;;6.36;100.00;99135.19;5068661;28;20212;-78
2022/02/06 09:56:27;;;;;;;5.50;3.63;;;;;;;6.23;100.00;99150.06;5059680;28;20193;-79
2022/02/06 09:59:01;;;;;;;9.43;4.35;;;;;;;6.37;100.00;99138.72;5063431;28;20646;-78
2022/02/06 10:01:29;;;;;;;7.10;3.78;;;;;;;6.32;100.00;99138.06;5066103;28;20189;-78
2022/02/06 10:04:03;;;;;;;10.48;4.30;;;;;;;6.40;100.00;99139.44;5060084;28;20649;-79
2022/02/06 10:06:36;;;;;;;7.03;4.70;;;;;;;6.45;100.00;99145.44;5071395;28;20211;-78
2022/02/06 10:09:04;;;;;;;7.35;4.05;;;;;;;6.37;100.00;99133.38;5062792;28;20186;-77
2022/02/06 10:11:33;;;;;;;5.13;4.10;;;;;;;6.52;100.00;99146.00;5056854;28;20284;-77
2022/02/06 10:14:00;;;;;;;7.32;4.13;;;;;;;6.46;100.00;99125.75;5065837;28;20201;-78
2022/02/06 10:16:27;;;;;;;6.45;4.10;;;;;;;6.47;100.00;99129.31;5066083;28;20713;-77
2022/02/06 10:18:53;;;;;;;7.75;4.28;;;;;;;6.36;100.00;99142.34;5063215;28;20284;-78
2022/02/06 10:21:30;;;;;;;7.32;3.90;;;;;;;6.11;100.00;99129.28;5058171;28;20280;-78
2022/02/06 10:24:04;;;;;;;5.60;4.43;;;;;;;6.18;100.00;99117.34;5058700;28;20205;-77
2022/02/06 10:26:38;;;;;;;7.20;4.10;;;;;;;6.24;100.00;99125.06;5070314;28;20564;-77
2022/02/06 10:31:56;;;;;;;4.97;4.05;;;;;;;6.35;100.00;99113.84;5057895;28;20190;-78
2022/02/06 10:34:24;;;;;;;5.55;3.75;;;;;;;6.40;100.00;99101.13;5073137;28;20208;-77
2022/02/06 10:37:08;;;;;;;4.07;3.67;;;;;;;6.54;100.00;99105.81;5062645;28;20280;-79
2022/02/06 10:39:38;;;;;;;4.65;4.25;;;;;;;6.64;100.00;99094.56;5074296;28;20225;-79
2022/02/06 10:42:05;;;;;;;5.30;3.75;;;;;;;6.66;100.00;99089.13;5072243;28;20207;-79
2022/02/06 10:44:32;;;;;;;8.77;3.70;;;;;;;6.68;100.00;99082.75;5072485;28;20192;-79
2022/02/06 10:47:00;;;;;;;8.05;3.70;;;;;;;6.58;100.00;99085.97;5072527;28;20201;-77
2022/02/06 10:49:27;;;;;;;6.65;4.00;;;;;;;6.65;100.00;99066.03;5073188;28;20189;-78
2022/02/06 10:52:00;;;;;;;4.80;3.63;;;;;;;6.72;100.00;99053.19;5067782;28;20192;-79
2022/02/06 10:54:34;;;;;;;6.20;3.58;;;;;;;6.56;100.00;99048.63;5068854;28;20207;-78
2022/02/06 10:57:05;;;;;;;8.27;4.00;;;;;;;6.72;100.00;99054.06;5076239;28;20261;-77
2022/02/06 10:59:39;;;;;;;8.43;3.40;;;;;;;6.51;100.00;99047.97;5065094;28;20185;-77
2022/02/06 11:02:09;;;;;;;6.25;4.10;;;;;;;6.67;100.00;99045.38;5059127;28;20566;-78
2022/02/06 11:04:44;;;;;;;3.30;3.00;;;;;;;6.58;100.00;99032.47;5065722;28;20634;-78
2022/02/06 11:07:13;;;;;;;11.13;4.60;;;;;;;6.36;100.00;99016.66;5055962;28;20193;-76
2022/02/06 11:09:40;;;;;;;5.05;3.38;;;;;;;6.38;100.00;99014.78;5054542;28;20209;-77
2022/02/06 11:12:13;;;;;;;4.97;3.40;;;;;;;6.34;100.00;99032.78;5059779;28;20188;-77
2022/02/06 11:14:47;;;;;;;6.97;3.88;;;;;;;6.36;100.00;99014.84;5061064;28;20629;-77
2022/02/06 11:17:19;;;;;;;7.15;4.32;;;;;;;6.41;100.00;99015.47;5067100;28;20192;-79
2022/02/06 11:20:04;;;;;;;8.00;3.70;;;;;;;6.46;100.00;99010.75;5071192;28;20685;-78
2022/02/06 11:22:31;;;;;;;7.68;3.75;;;;;;;6.31;100.00;99005.31;5073656;28;20266;-77
2022/02/06 11:24:59;;;;;;;5.47;3.88;;;;;;;6.21;100.00;98988.88;5056714;28;20197;-79
2022/02/06 11:27:27;;;;;;;8.27;3.70;;;;;;;6.16;100.00;98972.22;5054633;28;20607;-78
2022/02/06 11:29:56;;;;;;;9.00;3.88;;;;;;;6.13;100.00;98981.25;5058143;28;20235;-77
2022/02/06 11:32:24;;;;;;;5.80;3.38;;;;;;;6.18;100.00;98970.31;5072438;28;20203;-76
2022/02/06 11:34:51;;;;;;;4.65;3.58;;;;;;;6.12;100.00;98965.28;5074197;28;20228;-78
2022/02/06 11:43:51;;;;;;;6.38;3.20;;;;;;;6.24;100.00;98940.59;5053535;28;20292;-76
2022/02/06 11:46:23;;;;;;;11.45;4.10;;;;;;;6.30;100.00;98936.75;5053597;28;20236;-78
2022/02/06 11:48:53;;;;;;;5.63;4.38;;;;;;;6.21;100.00;98938.94;5053484;28;20190;-77
2022/02/06 11:51:20;;;;;;;6.10;4.28;;;;;;;6.18;100.00;98930.22;5053406;28;20280;-78
2022/02/06 11:53:47;;;;;;;3.78;3.15;;;;;;;6.20;100.00;98931.03;5063654;28;20279;-77
2022/02/06 11:56:22;;;;;;;6.47;3.20;;;;;;;6.26;100.00;98923.56;5073323;28;20287;-78
2022/02/06 11:58:51;;;;;;;5.25;3.05;;;;;;;6.20;100.00;98905.16;5071754;28;20188;-77
2022/02/06 12:01:26;;;;;;;6.40;4.22;;;;;;;6.32;100.00;98900.97;5072763;28;20207;-76
2022/02/06 12:03:59;;;;;;;6.10;3.08;;;;;;;6.33;100.00;98889.34;5072839;28;20211;-78
2022/02/06 12:06:29;;;;;;;6.00;2.83;;;;;;;6.24;100.00;98893.34;5073023;28;20184;-77
2022/02/06 12:09:18;;;;;;;4.50;2.72;;;;;;;6.12;100.00;98893.97;5072997;28;20208;-78
2022/02/06 12:12:13;;;;;;;4.15;3.05;;;;;;;6.23;100.00;98869.38;5072519;28;20181;-78
2022/02/06 12:14:46;;;;;;;8.07;4.00;;;;;;;6.33;100.00;98864.41;5054676;28;20276;-76
2022/02/06 12:17:20;;;;;;;3.75;2.65;;;;;;;6.34;100.00;98861.66;5052874;28;20193;-76
2022/02/06 12:20:08;;;;;;;20.65;11.48;;;;;;;6.50;100.00;98851.00;5052395;28;20295;-77
2022/02/06 12:22:38;;;;;;;7.55;3.88;;;;;;;6.45;100.00;98845.91;5052605;28;20308;-76
2022/02/06 12:25:20;;;;;;;4.13;2.65;;;;;;;6.40;100.00;98863.13;5054976;28;20238;-78
2022/02/06 12:27:48;;;;;;;5.10;2.72;;;;;;;6.31;100.00;98852.91;5052922;28;20281;-77
2022/02/06 12:30:22;;;;;;;3.13;2.80;;;;;;;6.12;100.00;98858.38;5053907;28;20627;-79
2022/02/06 12:32:49;;;;;;;3.53;2.00;;;;;;;6.05;100.00;98852.47;5052328;28;20185;-78
2022/02/06 12:38:07;;;;;;;3.03;2.03;;;;;;;6.10;100.00;98831.72;5063076;28;20193;-83
2022/02/06 12:40:34;;;;;;;4.07;2.08;;;;;;;6.11;100.00;98830.78;5052748;28;20232;-82
2022/02/06 12:43:03;;;;;;;3.08;2.10;;;;;;;6.10;100.00;98834.38;5064081;28;20201;-82
2022/02/06 12:45:33;;;;;;;3.63;2.00;;;;;;;6.15;100.00;98823.44;5072002;28;20200;-83
2022/02/06 12:48:01;;;;;;;2.15;1.95;;;;;;;6.17;100.00;98825.13;5071951;28;20181;-83
2022/02/06 12:50:30;;;;;;;3.60;2.08;;;;;;;6.14;100.00;98814.56;5071846;28;20246;-82
2022/02/06 12:52:58;;;;;;;5.53;1.85;;;;;;;6.07;100.00;98810.50;5071410;28;20192;-82
2022/02/06 12:55:29;;;;;;;2.65;1.90;;;;;;;6.18;100.00;98797.44;5056423;28;20197;-83
2022/02/06 12:57:56;;;;;;;3.22;1.95;;;;;;;6.19;100.00;98784.94;5051544;28;20288;-82
2022/02/06 13:00:30;;;;;;;3.75;2.15;;;;;;;6.29;100.00;98770.13;5064061;28;20196;-83
2022/02/06 13:03:25;;;;;;;3.88;2.72;;;;;;;6.23;100.00;98763.28;5054398;28;20210;-83
2022/02/06 13:05:58;;;;;;;4.80;2.58;;;;;;;6.36;100.00;98768.00;5052179;28;20244;-82
2022/02/06 13:08:25;;;;;;;3.10;1.80;;;;;;;6.30;100.00;98761.16;5053802;28;20224;-82
2022/02/06 13:10:54;;;;;;;4.30;1.85;;;;;;;6.25;100.00;98749.84;5063482;28;20201;-83
2022/02/06 13:13:26;;;;;;;3.67;2.60;;;;;;;6.24;100.00;98746.31;5073177;28;20197;-85
2022/02/06 13:16:05;;;;;;;4.35;3.60;;;;;;;6.31;100.00;98746.88;5059183;28;20209;-84
2022/02/06 13:18:53;;;;;;;7.47;4.18;;;;;;;6.40;100.00;98740.13;5064197;28;20208;-85